createdAt,value
2024-05-09T00:01:32.589Z,11.00
2024-05-09T00:04:36.655Z,11.28
2024-05-09T00:07:40.297Z,11.73
2024-05-09T00:10:44.142Z,12.01
2024-05-09T00:13:48.293Z,11.87
2024-05-09T00:16:52.264Z,11.72
2024-05-09T00:19:56.162Z,11.64
2024-05-09T00:22:59.821Z,11.84
2024-05-09T00:26:03.291Z,11.98
2024-05-09T00:29:07.446Z,12.31
2024-05-09T00:32:11.612Z,12.72
2024-05-09T00:35:15.456Z,12.96
2024-05-09T00:38:19.250Z,12.99
2024-05-09T00:41:23.159Z,13.16
2024-05-09T00:44:27.158Z,13.08
2024-05-09T00:47:31.129Z,13.17
2024-05-09T00:50:37.762Z,13.41
2024-05-09T00:53:42.462Z,13.60
2024-05-09T00:56:46.532Z,13.77
2024-05-09T00:59:50.958Z,13.93
2024-05-09T01:02:54.827Z,13.82
2024-05-09T01:05:58.729Z,13.82
2024-05-09T01:09:02.503Z,13.98
2024-05-09T01:12:06.624Z,14.06
2024-05-09T01:15:10.347Z,14.18
2024-05-09T01:18:14.886Z,14.30
2024-05-09T01:21:18.789Z,14.32
2024-05-09T01:24:22.682Z,14.43
2024-05-09T01:27:26.175Z,14.62
2024-05-09T01:30:34.799Z,14.78
2024-05-09T01:33:40.753Z,14.97
2024-05-09T01:36:44.778Z,15.14
2024-05-09T01:39:48.706Z,15.27
2024-05-09T01:42:52.259Z,15.34
2024-05-09T01:45:55.972Z,15.45
2024-05-09T01:49:00.136Z,15.65
2024-05-09T01:52:03.959Z,15.91
2024-05-09T01:55:10.797Z,16.19
2024-05-09T01:58:14.729Z,16.42
2024-05-09T02:01:18.665Z,16.68
2024-05-09T02:04:22.715Z,16.94
2024-05-09T02:07:27.572Z,17.25
2024-05-09T02:10:33.081Z,17.48
2024-05-09T02:13:37.143Z,17.78
2024-05-09T02:16:40.965Z,18.06
2024-05-09T02:19:44.936Z,18.39
2024-05-09T02:22:48.742Z,18.67
2024-05-09T02:25:52.723Z,18.87
2024-05-09T02:28:56.592Z,19.05
2024-05-09T02:32:00.499Z,19.20
2024-05-09T02:35:04.383Z,19.39
2024-05-09T02:38:10.172Z,19.55
2024-05-09T02:41:14.273Z,19.63
2024-05-09T02:44:17.934Z,19.73
2024-05-09T02:47:22.015Z,19.78
2024-05-09T02:50:34.400Z,19.82
2024-05-09T02:53:42.543Z,19.89
2024-05-09T02:56:46.225Z,19.98
2024-05-09T02:59:49.841Z,20.10
2024-05-09T03:02:53.825Z,20.18
2024-05-09T03:05:57.448Z,20.26
2024-05-09T03:09:01.905Z,20.34
2024-05-09T03:12:06.084Z,20.48
2024-05-09T03:15:10.006Z,20.55
2024-05-09T03:18:14.067Z,20.71
2024-05-09T03:21:17.963Z,20.91
2024-05-09T03:24:21.714Z,21.11
2024-05-09T03:27:25.603Z,21.29
2024-05-09T03:30:38.350Z,21.41
2024-05-09T03:33:45.927Z,21.39
2024-05-09T03:36:49.681Z,21.43
2024-05-09T03:39:53.377Z,21.39
2024-05-09T03:42:57.116Z,21.35
2024-05-09T03:46:01.201Z,21.22
2024-05-09T03:49:04.988Z,21.03
2024-05-09T03:52:08.791Z,20.83
2024-05-09T03:55:12.558Z,20.61
2024-05-09T03:58:16.712Z,20.46
2024-05-09T04:01:20.672Z,20.46
2024-05-09T04:04:24.484Z,20.35
2024-05-09T04:07:28.099Z,20.24
2024-05-09T04:10:34.209Z,20.15
2024-05-09T04:13:38.901Z,20.06
2024-05-09T04:16:42.572Z,20.26
2024-05-09T04:19:46.955Z,20.25
2024-05-09T04:22:50.993Z,20.23
2024-05-09T04:25:54.938Z,20.23
2024-05-09T04:28:58.927Z,20.38
2024-05-09T04:32:02.840Z,20.59
2024-05-09T04:35:06.606Z,20.64
2024-05-09T04:38:10.656Z,20.70
2024-05-09T04:41:14.514Z,20.82
2024-05-09T04:44:18.337Z,20.85
2024-05-09T04:47:22.625Z,20.95
2024-05-09T04:50:35.406Z,20.97
2024-05-09T04:53:42.130Z,21.08
2024-05-09T04:56:46.349Z,21.20
2024-05-09T04:59:49.989Z,21.34
2024-05-09T05:02:53.886Z,21.44
2024-05-09T05:05:57.837Z,21.54
2024-05-09T05:09:02.085Z,21.48
2024-05-09T05:12:25.791Z,21.44
2024-05-09T05:15:29.683Z,21.56
2024-05-09T05:18:33.455Z,21.62
2024-05-09T05:21:37.554Z,21.74
2024-05-09T05:24:41.021Z,21.78
2024-05-09T05:27:44.719Z,21.70
2024-05-09T05:30:48.816Z,21.57
2024-05-09T05:33:52.826Z,21.48
2024-05-09T05:36:56.708Z,21.46
2024-05-09T05:40:00.238Z,21.47
2024-05-09T05:43:05.332Z,21.59
2024-05-09T05:46:09.676Z,21.73
2024-05-09T05:49:13.341Z,21.63
2024-05-09T05:52:17.283Z,21.55
2024-05-09T05:55:21.077Z,21.51
2024-05-09T05:58:25.514Z,21.51
2024-05-09T06:01:29.320Z,21.62
2024-05-09T06:04:33.093Z,21.72
2024-05-09T06:07:36.907Z,21.80
2024-05-09T06:10:41.763Z,21.91
2024-05-09T06:13:45.944Z,22.07
2024-05-09T06:16:49.977Z,22.09
2024-05-09T06:19:54.031Z,22.07
2024-05-09T06:22:58.310Z,22.13
2024-05-09T06:26:02.194Z,22.06
2024-05-09T06:29:06.117Z,22.08
2024-05-09T06:32:10.051Z,22.18
2024-05-09T06:35:14.057Z,22.21
2024-05-09T06:38:19.561Z,22.19
2024-05-09T06:41:23.402Z,22.19
2024-05-09T06:44:27.542Z,22.16
2024-05-09T06:47:31.668Z,22.07
2024-05-09T06:50:38.087Z,21.98
2024-05-09T06:53:43.272Z,21.98
2024-05-09T06:56:46.866Z,21.90
2024-05-09T06:59:50.570Z,22.01
2024-05-09T07:02:54.626Z,22.11
2024-05-09T07:05:58.227Z,22.16
2024-05-09T07:09:01.914Z,22.21
2024-05-09T07:12:06.135Z,22.23
2024-05-09T07:15:10.172Z,22.29
2024-05-09T07:18:17.917Z,22.37
2024-05-09T07:21:25.649Z,22.38
2024-05-09T07:24:29.560Z,22.35
2024-05-09T07:27:33.426Z,22.26
2024-05-09T07:30:37.175Z,22.27
2024-05-09T07:33:40.882Z,22.42
2024-05-09T07:36:44.692Z,22.51
2024-05-09T07:39:48.630Z,22.57
2024-05-09T07:42:52.447Z,22.55
2024-05-09T07:45:58.229Z,22.58
2024-05-09T07:50:53.351Z,22.52
2024-05-09T07:53:32.422Z,22.51
2024-05-09T07:55:52.093Z,22.43
2024-05-09T07:58:56.573Z,22.38
2024-05-09T08:02:00.488Z,22.36
2024-05-09T08:05:05.858Z,22.45
2024-05-09T08:08:09.895Z,22.53
2024-05-09T08:11:13.624Z,22.53
2024-05-09T08:14:17.484Z,22.37
2024-05-09T08:17:21.346Z,22.32
2024-05-09T08:20:43.557Z,22.43
2024-05-09T08:23:47.268Z,22.59
2024-05-09T08:26:51.154Z,22.62
2024-05-09T08:29:55.123Z,22.55
2024-05-09T08:32:59.080Z,22.65
2024-05-09T08:36:02.887Z,22.61
2024-05-09T08:39:06.554Z,22.64
2024-05-09T08:42:13.706Z,22.68
2024-05-09T08:45:18.596Z,22.69
2024-05-09T08:48:25.292Z,22.70
2024-05-09T08:51:29.402Z,22.63
2024-05-09T08:54:33.405Z,22.61
2024-05-09T08:57:38.979Z,22.57
2024-05-09T09:00:45.369Z,22.52
2024-05-09T09:03:50.511Z,22.42
2024-05-09T09:06:58.137Z,22.34
2024-05-09T09:10:07.091Z,22.43
2024-05-09T09:13:12.733Z,22.48
2024-05-09T09:16:17.307Z,22.55
2024-05-09T09:19:23.774Z,22.55
2024-05-09T09:22:27.730Z,22.33
2024-05-09T09:25:31.662Z,22.13
2024-05-09T09:28:40.499Z,22.12
2024-05-09T09:31:44.227Z,21.91
2024-05-09T09:34:50.236Z,21.68
2024-05-09T09:37:54.946Z,21.53
2024-05-09T09:41:02.377Z,21.45
2024-05-09T09:44:10.272Z,21.34
2024-05-09T09:47:16.655Z,21.39
2024-05-09T09:50:27.230Z,21.41
2024-05-09T09:53:38.389Z,21.44
2024-05-09T09:56:44.751Z,21.39
2024-05-09T09:59:53.035Z,21.39
2024-05-09T10:02:56.682Z,21.24
2024-05-09T10:06:01.323Z,21.13
2024-05-09T10:09:05.468Z,21.07
2024-05-09T10:12:14.420Z,21.01
2024-05-09T10:15:20.997Z,20.90
2024-05-09T10:21:48.208Z,20.51
2024-05-09T10:24:54.060Z,20.42
2024-05-09T10:27:57.684Z,20.33
2024-05-09T10:31:12.337Z,20.28
2024-05-09T10:34:25.667Z,20.26
2024-05-09T10:37:31.320Z,20.21
2024-05-09T10:40:35.685Z,20.23
2024-05-09T10:43:43.053Z,20.28
2024-05-09T10:46:47.485Z,20.25
2024-05-09T10:49:51.660Z,20.21
2024-05-09T10:52:55.385Z,20.10
2024-05-09T10:56:00.333Z,19.91
2024-05-09T10:59:06.891Z,19.87
2024-05-09T11:02:11.839Z,19.81
2024-05-09T11:05:16.094Z,19.78
2024-05-09T11:08:23.071Z,19.77
2024-05-09T11:11:27.874Z,19.74
2024-05-09T11:14:31.819Z,19.66
2024-05-09T11:17:38.970Z,19.61
2024-05-09T11:20:42.879Z,19.58
2024-05-09T11:23:47.454Z,19.54
2024-05-09T11:26:51.228Z,19.50
2024-05-09T11:29:56.036Z,19.46
2024-05-09T11:33:00.106Z,19.41
2024-05-09T11:36:03.944Z,19.35
2024-05-09T11:39:07.847Z,19.28
2024-05-09T11:42:11.554Z,19.24
2024-05-09T11:45:15.490Z,19.24
2024-05-09T11:48:19.492Z,19.23
2024-05-09T11:51:23.423Z,19.20
2024-05-09T11:54:27.241Z,19.14
2024-05-09T11:57:31.448Z,19.07
2024-05-09T12:00:37.546Z,19.05
2024-05-09T12:03:41.895Z,19.04
2024-05-09T12:06:47.019Z,18.99
2024-05-09T12:09:50.869Z,18.99
2024-05-09T12:12:55.355Z,19.02
2024-05-09T12:15:59.494Z,18.96
2024-05-09T12:19:03.324Z,18.87
2024-05-09T12:22:07.624Z,18.79
2024-05-09T12:25:11.249Z,18.72
2024-05-09T12:28:17.736Z,18.67
2024-05-09T12:31:21.542Z,18.60
2024-05-09T12:34:25.776Z,18.56
2024-05-09T12:37:29.679Z,18.52
2024-05-09T12:40:37.021Z,18.45
2024-05-09T12:43:42.366Z,18.39
2024-05-09T12:46:46.389Z,18.34
2024-05-09T12:49:50.093Z,18.30
2024-05-09T12:52:53.817Z,18.29
2024-05-09T12:56:01.825Z,18.28
2024-05-09T12:59:06.830Z,18.28
2024-05-09T13:02:10.789Z,18.27
2024-05-09T13:05:15.220Z,18.21
2024-05-09T13:08:19.041Z,18.16
2024-05-09T13:11:22.815Z,18.11
2024-05-09T13:14:26.533Z,18.03
2024-05-09T13:17:30.648Z,18.00
2024-05-09T13:20:35.944Z,18.01
2024-05-09T13:23:40.283Z,17.98
2024-05-09T13:26:44.116Z,17.93
2024-05-09T13:29:47.731Z,17.89
2024-05-09T13:32:51.411Z,17.88
2024-05-09T13:35:55.132Z,17.88
2024-05-09T13:39:00.087Z,17.84
2024-05-09T13:42:03.884Z,17.79
2024-05-09T13:45:08.253Z,17.75
2024-05-09T13:48:14.491Z,17.74
2024-05-09T13:51:22.370Z,17.77
2024-05-09T13:54:25.972Z,17.79
2024-05-09T13:57:29.961Z,17.78
2024-05-09T14:00:44.013Z,17.84
2024-05-09T14:03:53.521Z,17.77
2024-05-09T14:06:57.439Z,17.66
2024-05-09T14:10:01.207Z,17.61
2024-05-09T14:13:05.232Z,17.54
2024-05-09T14:16:09.555Z,17.50
2024-05-09T14:19:13.502Z,17.44
2024-05-09T14:22:17.380Z,17.34
2024-05-09T14:25:21.144Z,17.30
2024-05-09T14:28:25.644Z,17.28
2024-05-09T14:31:29.655Z,17.36
2024-05-09T14:34:33.244Z,17.36
2024-05-09T14:37:39.380Z,17.38
2024-05-09T14:40:44.324Z,17.38
2024-05-09T14:43:48.281Z,17.33
2024-05-09T14:46:52.230Z,17.19
2024-05-09T14:49:55.863Z,17.14
2024-05-09T14:52:59.656Z,17.09
2024-05-09T14:56:03.597Z,16.94
2024-05-09T14:59:08.312Z,16.90
2024-05-09T15:02:12.455Z,16.87
2024-05-09T15:05:16.320Z,16.81
2024-05-09T15:08:21.083Z,16.79
2024-05-09T15:11:25.712Z,16.77
2024-05-09T15:14:29.384Z,16.67
2024-05-09T15:17:33.642Z,16.68
2024-05-09T15:20:38.056Z,16.68
2024-05-09T15:23:42.172Z,16.68
2024-05-09T15:26:46.007Z,16.63
2024-05-09T15:29:49.523Z,16.50
2024-05-09T15:32:53.497Z,16.36
2024-05-09T15:35:57.266Z,16.25
2024-05-09T15:39:00.981Z,16.08
2024-05-09T15:42:04.907Z,15.98
2024-05-09T15:45:08.886Z,15.95
2024-05-09T15:48:12.886Z,15.94
2024-05-09T15:51:16.693Z,15.96
2024-05-09T15:54:21.562Z,15.84
2024-05-09T15:57:26.201Z,15.76
2024-05-09T16:00:37.563Z,15.57
2024-05-09T16:03:44.912Z,15.39
2024-05-09T16:06:48.779Z,15.32
2024-05-09T16:09:52.876Z,15.26
2024-05-09T16:12:56.788Z,15.23
2024-05-09T16:16:00.935Z,15.16
2024-05-09T16:19:04.946Z,15.14
2024-05-09T16:22:08.779Z,15.08
2024-05-09T16:25:12.481Z,15.14
2024-05-09T16:28:16.334Z,15.06
2024-05-09T16:31:20.114Z,14.95
2024-05-09T16:34:23.723Z,14.85
2024-05-09T16:37:29.577Z,14.74
2024-05-09T16:40:38.631Z,14.63
2024-05-09T16:43:44.645Z,14.57
2024-05-09T16:46:48.507Z,14.56
2024-05-09T16:49:52.359Z,14.50
2024-05-09T16:52:55.901Z,14.45
2024-05-09T16:55:59.790Z,14.40
2024-05-09T16:59:03.756Z,14.31
2024-05-09T17:02:07.954Z,14.23
2024-05-09T17:05:12.131Z,14.22
2024-05-09T17:08:18.831Z,14.23
2024-05-09T17:11:22.927Z,14.24
2024-05-09T17:14:26.426Z,14.14
2024-05-09T17:17:30.273Z,13.99
2024-05-09T17:20:36.711Z,13.87
2024-05-09T17:23:41.581Z,13.78
2024-05-09T17:26:46.512Z,13.73
2024-05-09T17:29:50.538Z,13.72
2024-05-09T17:32:54.577Z,13.75
2024-05-09T17:35:58.271Z,13.72
2024-05-09T17:39:01.878Z,13.71
2024-05-09T17:42:05.800Z,13.67
2024-05-09T17:45:09.464Z,13.67
2024-05-09T17:48:13.979Z,13.61
2024-05-09T17:51:17.561Z,13.57
2024-05-09T17:54:21.898Z,13.48
2024-05-09T17:57:27.485Z,13.42
2024-05-09T18:00:37.932Z,13.35
2024-05-09T18:03:44.770Z,13.31
2024-05-09T18:06:48.766Z,13.14
2024-05-09T18:09:52.659Z,12.86
2024-05-09T18:12:56.484Z,12.79
2024-05-09T18:16:00.458Z,12.66
2024-05-09T18:19:04.402Z,12.48
2024-05-09T18:22:08.409Z,12.33
2024-05-09T18:25:12.167Z,12.20
2024-05-09T18:28:16.977Z,12.07
2024-05-09T18:31:21.367Z,11.94
2024-05-09T18:34:24.951Z,11.84
2024-05-09T18:37:28.726Z,11.79
2024-05-09T18:40:35.938Z,11.67
2024-05-09T18:43:45.242Z,11.58
2024-05-09T18:46:52.180Z,11.50
2024-05-09T18:49:56.040Z,11.37
2024-05-09T18:52:59.897Z,11.39
2024-05-09T18:56:03.698Z,11.40
2024-05-09T18:59:07.427Z,11.30
2024-05-09T19:02:11.202Z,11.16
2024-05-09T19:05:15.201Z,11.09
2024-05-09T19:08:18.993Z,11.06
2024-05-09T19:11:22.799Z,11.11
2024-05-09T19:14:26.579Z,11.16
2024-05-09T19:17:30.742Z,10.99
2024-05-09T19:20:36.490Z,10.72
2024-05-09T19:23:47.164Z,10.52
2024-05-09T19:26:57.215Z,10.45
2024-05-09T19:30:00.955Z,10.50
2024-05-09T19:33:05.499Z,10.48
2024-05-09T19:36:09.471Z,10.39
2024-05-09T19:39:13.373Z,10.23
2024-05-09T19:42:17.169Z,10.09
2024-05-09T19:45:20.845Z,10.01
2024-05-09T19:48:24.750Z,9.91
2024-05-09T19:51:28.618Z,9.87
2024-05-09T19:54:32.295Z,9.82
2024-05-09T19:57:36.423Z,9.61
2024-05-09T20:00:42.835Z,9.51
2024-05-09T20:03:48.459Z,9.45
2024-05-09T20:06:52.553Z,9.36
2024-05-09T20:09:56.329Z,9.31
2024-05-09T20:13:00.301Z,9.17
2024-05-09T20:16:04.106Z,9.10
2024-05-09T20:19:08.055Z,9.09
2024-05-09T20:22:12.178Z,9.14
2024-05-09T20:25:16.350Z,9.20
2024-05-09T20:28:20.333Z,9.18
2024-05-09T20:31:24.286Z,9.16
2024-05-09T20:34:28.055Z,9.13
2024-05-09T20:37:31.751Z,9.23
2024-05-09T20:40:38.130Z,9.33
2024-05-09T20:44:03.012Z,9.45
2024-05-09T20:47:06.598Z,9.42
2024-05-09T20:50:20.335Z,9.41
2024-05-09T20:53:31.813Z,9.39
2024-05-09T20:56:35.569Z,9.24
2024-05-09T20:59:41.215Z,9.08
2024-05-09T21:02:45.101Z,8.99
2024-05-09T21:05:49.114Z,9.00
2024-05-09T21:08:53.049Z,9.08
2024-05-09T21:11:56.730Z,9.18
2024-05-09T21:15:00.574Z,9.16
2024-05-09T21:18:04.568Z,9.05
2024-05-09T21:21:08.977Z,9.11
2024-05-09T21:24:12.708Z,9.08
2024-05-09T21:27:16.480Z,9.06
2024-05-09T21:30:31.413Z,8.98
2024-05-09T21:33:42.860Z,8.81
2024-05-09T21:36:46.523Z,8.76
2024-05-09T21:39:50.364Z,8.74
2024-05-09T21:42:54.075Z,8.56
2024-05-09T21:45:57.879Z,8.32
2024-05-09T21:49:01.891Z,8.10
2024-05-09T21:52:05.904Z,7.88
2024-05-09T21:55:10.028Z,7.79
2024-05-09T21:58:15.107Z,7.68
2024-05-09T22:01:19.544Z,7.47
2024-05-09T22:04:23.326Z,7.31
2024-05-09T22:07:26.827Z,7.26
2024-05-09T22:10:34.579Z,7.27
2024-05-09T22:13:40.101Z,7.13
2024-05-09T22:16:43.821Z,6.91
2024-05-09T22:19:49.388Z,6.70
2024-05-09T22:22:55.066Z,6.51
2024-05-09T22:25:58.879Z,6.41
2024-05-09T22:29:02.601Z,6.44
2024-05-09T22:32:07.287Z,6.17
2024-05-09T22:35:11.497Z,5.77
2024-05-09T22:38:15.396Z,5.63
2024-05-09T22:41:19.143Z,5.52
2024-05-09T22:44:23.318Z,5.49
2024-05-09T22:47:27.307Z,5.48
2024-05-09T22:50:33.401Z,5.25
2024-05-09T22:53:37.342Z,5.20
2024-05-09T22:56:41.344Z,5.22
2024-05-09T22:59:45.119Z,5.25
2024-05-09T23:02:49.208Z,5.30
2024-05-09T23:05:53.042Z,5.23
2024-05-09T23:08:56.949Z,5.13
2024-05-09T23:12:01.066Z,5.15
2024-05-09T23:15:04.914Z,5.18
2024-05-09T23:18:09.203Z,5.19
2024-05-09T23:21:13.172Z,5.19
2024-05-09T23:24:16.893Z,5.26
2024-05-09T23:27:20.574Z,5.29
2024-05-09T23:30:33.557Z,5.32
2024-05-09T23:33:48.298Z,5.40
2024-05-09T23:36:52.115Z,5.35
2024-05-09T23:39:57.056Z,5.29
2024-05-09T23:43:00.781Z,5.13
2024-05-09T23:46:04.945Z,5.12
2024-05-09T23:49:08.616Z,5.07
2024-05-09T23:52:12.378Z,5.00
2024-05-09T23:55:16.404Z,5.10
2024-05-09T23:58:20.325Z,5.17
